createdAt,value
2019-01-21T00:01:49.478Z,28.92
2019-01-21T00:04:19.277Z,26.23
2019-01-21T00:06:49.973Z,33.83
2019-01-21T00:09:19.429Z,30.65
2019-01-21T00:11:50.351Z,32.10
2019-01-21T00:14:19.838Z,45.88
2019-01-21T00:16:49.473Z,28.35
2019-01-21T00:19:18.980Z,35.20
2019-01-21T00:21:48.495Z,27.98
2019-01-21T00:24:17.910Z,26.50
2019-01-21T00:26:48.634Z,27.62
2019-01-21T00:29:18.059Z,36.65
2019-01-21T00:31:47.575Z,29.23
2019-01-21T00:34:17.055Z,26.30
2019-01-21T00:36:48.064Z,35.23
2019-01-21T00:39:17.544Z,34.50
2019-01-21T00:41:48.264Z,36.50
2019-01-21T00:44:17.679Z,40.30
2019-01-21T00:46:47.135Z,42.10
2019-01-21T00:49:16.607Z,48.38
2019-01-21T00:51:46.046Z,50.20
2019-01-21T00:54:15.467Z,49.58
2019-01-21T00:56:46.284Z,40.95
2019-01-21T00:59:15.704Z,37.65
2019-01-21T01:01:46.423Z,61.98
2019-01-21T01:04:15.835Z,55.10
2019-01-21T01:06:46.560Z,54.70
2019-01-21T01:09:15.971Z,47.43
2019-01-21T01:11:46.690Z,39.55
2019-01-21T01:14:16.102Z,33.58
2019-01-21T01:16:47.022Z,33.58
2019-01-21T01:19:16.441Z,31.15
2019-01-21T01:21:47.254Z,34.30
2019-01-21T01:24:16.780Z,32.08
2019-01-21T01:26:47.559Z,33.85
2019-01-21T01:29:16.966Z,32.65
2019-01-21T01:31:47.803Z,33.85
2019-01-21T01:34:17.290Z,34.60
2019-01-21T01:36:46.779Z,36.10
2019-01-21T01:39:16.310Z,44.70
2019-01-21T01:41:45.807Z,45.85
2019-01-21T01:44:15.267Z,36.90
2019-01-21T01:46:46.527Z,33.67
2019-01-21T01:49:15.970Z,34.50
2019-01-21T01:51:45.455Z,29.02
2019-01-21T01:54:14.903Z,28.55
2019-01-21T01:56:45.893Z,32.90
2019-01-21T01:59:15.403Z,29.60
2019-01-21T02:01:46.390Z,32.78
2019-01-21T02:04:15.946Z,26.45
2019-01-21T02:06:46.943Z,30.75
2019-01-21T02:09:16.391Z,29.40
2019-01-21T02:11:47.280Z,24.95
2019-01-21T02:14:16.729Z,28.70
2019-01-21T02:16:46.138Z,26.42
2019-01-21T02:19:15.619Z,28.50
2019-01-21T02:21:45.095Z,29.35
2019-01-21T02:24:15.087Z,27.48
2019-01-21T02:26:49.328Z,30.75
2019-01-21T02:29:22.036Z,30.72
2019-01-21T02:32:18.640Z,30.52
2019-01-21T02:34:54.091Z,32.35
2019-01-21T02:37:35.728Z,29.50
2019-01-21T02:40:24.954Z,33.40
2019-01-21T02:43:15.479Z,30.00
2019-01-21T02:46:02.017Z,33.25
2019-01-21T02:48:46.735Z,30.55
2019-01-21T02:51:37.773Z,30.05
2019-01-21T02:54:22.415Z,29.80
2019-01-21T02:56:59.391Z,31.05
2019-01-21T02:59:47.284Z,27.82
2019-01-21T03:02:36.135Z,28.40
2019-01-21T03:05:20.850Z,30.20
2019-01-21T03:08:17.920Z,29.35
2019-01-21T03:11:26.026Z,25.55
2019-01-21T03:14:26.354Z,29.85
2019-01-21T03:17:16.879Z,29.45
2019-01-21T03:19:55.222Z,27.82
2019-01-21T03:22:41.269Z,29.42
2019-01-21T03:25:26.048Z,28.90
2019-01-21T03:28:22.756Z,33.95
2019-01-21T03:31:13.696Z,34.27
2019-01-21T03:33:51.739Z,34.43
2019-01-21T03:36:39.322Z,36.05
2019-01-21T03:39:28.385Z,35.90
2019-01-21T03:42:08.596Z,35.88
2019-01-21T03:44:46.792Z,36.05
2019-01-21T03:47:28.483Z,35.23
2019-01-21T03:50:26.747Z,31.60
2019-01-21T03:53:05.216Z,31.40
2019-01-21T03:55:36.239Z,36.38
2019-01-21T03:58:28.518Z,33.35
2019-01-21T04:01:02.690Z,29.98
2019-01-21T04:03:38.330Z,32.00
2019-01-21T04:06:22.848Z,30.75
2019-01-21T04:09:07.136Z,30.00
2019-01-21T04:11:47.059Z,33.38
2019-01-21T04:14:47.084Z,35.55
2019-01-21T04:17:28.691Z,35.90
2019-01-21T04:20:04.104Z,33.02
2019-01-21T04:22:56.192Z,31.05
2019-01-21T04:25:37.619Z,32.63
2019-01-21T04:28:16.200Z,35.43
2019-01-21T04:30:51.723Z,29.00
2019-01-21T04:33:32.791Z,32.73
2019-01-21T04:36:20.508Z,29.30
2019-01-21T04:39:08.065Z,32.50
2019-01-21T04:41:58.888Z,29.07
2019-01-21T04:44:40.579Z,34.83
2019-01-21T04:47:39.112Z,28.23
2019-01-21T04:50:20.679Z,30.43
2019-01-21T04:53:06.695Z,32.00
2019-01-21T04:55:58.734Z,32.23
2019-01-21T04:58:47.199Z,35.00
2019-01-21T05:01:36.588Z,34.98
2019-01-21T05:04:15.070Z,30.05
2019-01-21T05:06:54.705Z,35.90
2019-01-21T05:09:51.652Z,32.65
2019-01-21T05:12:52.822Z,32.45
2019-01-21T05:15:25.675Z,33.98
2019-01-21T05:18:01.495Z,31.37
2019-01-21T05:20:47.451Z,30.35
2019-01-21T05:23:32.014Z,33.58
2019-01-21T05:26:21.527Z,32.88
2019-01-21T05:28:57.262Z,35.75
2019-01-21T05:31:29.933Z,33.85
2019-01-21T05:34:05.258Z,32.60
2019-01-21T05:36:47.912Z,32.25
2019-01-21T05:39:23.454Z,36.50
2019-01-21T05:42:02.359Z,36.95
2019-01-21T05:44:53.209Z,32.88
2019-01-21T05:47:48.320Z,30.27
2019-01-21T05:50:30.051Z,34.13
2019-01-21T05:53:05.685Z,31.35
2019-01-21T05:56:09.922Z,35.65
2019-01-21T05:58:57.403Z,31.95
2019-01-21T06:01:46.123Z,33.95
2019-01-21T06:04:30.666Z,32.80
2019-01-21T06:07:07.416Z,37.75
2019-01-21T06:09:52.138Z,39.05
2019-01-21T06:12:41.530Z,37.03
2019-01-21T06:15:23.018Z,35.88
2019-01-21T06:18:01.207Z,34.78
2019-01-21T06:20:36.172Z,31.50
2019-01-21T06:23:25.205Z,33.10
2019-01-21T06:26:17.456Z,35.50
2019-01-21T06:28:55.879Z,34.63
2019-01-21T06:31:55.655Z,31.93
2019-01-21T06:34:43.265Z,32.15
2019-01-21T06:37:27.740Z,32.98
2019-01-21T06:40:12.099Z,35.98
2019-01-21T06:42:48.994Z,37.05
2019-01-21T06:45:44.049Z,35.03
2019-01-21T06:48:34.654Z,36.58
2019-01-21T06:51:23.942Z,31.57
2019-01-21T06:54:05.526Z,32.45
2019-01-21T06:56:50.243Z,35.30
2019-01-21T06:59:39.331Z,34.55
2019-01-21T07:02:22.166Z,34.38
2019-01-21T07:05:14.653Z,31.93
2019-01-21T07:08:17.400Z,33.05
2019-01-21T07:11:02.293Z,30.35
2019-01-21T07:13:54.605Z,33.48
2019-01-21T07:16:54.859Z,35.90
2019-01-21T07:19:32.955Z,34.60
2019-01-21T07:22:15.223Z,37.80
2019-01-21T07:24:53.511Z,36.38
2019-01-21T07:27:46.849Z,35.75
2019-01-21T07:30:25.487Z,37.88
2019-01-21T07:33:07.235Z,29.45
2019-01-21T07:36:16.185Z,34.98
2019-01-21T07:39:00.015Z,37.13
2019-01-21T07:41:48.993Z,32.83
2019-01-21T07:44:44.142Z,33.85
2019-01-21T07:47:22.683Z,33.53
2019-01-21T07:50:04.165Z,30.45
2019-01-21T07:52:47.295Z,27.60
2019-01-21T07:55:45.503Z,31.05
2019-01-21T07:58:50.678Z,28.80
2019-01-21T08:01:27.190Z,30.25
2019-01-21T08:04:22.519Z,29.18
2019-01-21T08:07:08.559Z,27.80
2019-01-21T08:10:00.842Z,28.23
2019-01-21T08:12:49.997Z,25.95
2019-01-21T08:15:26.417Z,26.17
2019-01-21T08:18:11.283Z,27.10
2019-01-21T08:20:47.246Z,26.37
2019-01-21T08:23:35.091Z,28.73
2019-01-21T08:26:39.971Z,24.17
2019-01-21T08:29:18.580Z,23.37
2019-01-21T08:31:55.383Z,30.60
2019-01-21T08:34:47.622Z,32.37
2019-01-21T08:37:21.262Z,55.93
2019-01-21T08:40:06.027Z,62.13
2019-01-21T08:43:07.427Z,61.60
2019-01-21T08:45:48.979Z,39.60
2019-01-21T08:48:24.601Z,51.03
2019-01-21T08:51:05.676Z,38.70
2019-01-21T08:53:57.690Z,32.50
2019-01-21T08:56:52.533Z,31.20
2019-01-21T08:59:27.837Z,30.83
2019-01-21T09:02:20.967Z,28.47
2019-01-21T09:05:10.328Z,29.00
2019-01-21T09:08:19.239Z,29.03
2019-01-21T09:11:11.461Z,29.83
2019-01-21T09:13:59.942Z,35.40
2019-01-21T09:16:44.533Z,34.73
2019-01-21T09:19:42.895Z,29.70
2019-01-21T09:22:22.441Z,31.23
2019-01-21T09:24:57.750Z,31.87
2019-01-21T09:27:30.462Z,33.20
2019-01-21T09:30:03.203Z,35.27
2019-01-21T09:32:55.527Z,35.63
2019-01-21T09:35:45.646Z,33.90
2019-01-21T09:38:24.066Z,46.70
2019-01-21T09:40:56.867Z,40.50
2019-01-21T09:43:32.196Z,46.90
2019-01-21T09:46:07.498Z,67.80
2019-01-21T09:48:36.082Z,51.00
2019-01-21T09:51:06.789Z,59.70
2019-01-21T09:53:36.232Z,38.60
2019-01-21T09:56:07.009Z,36.50
2019-01-21T09:58:36.430Z,34.73
2019-01-21T10:01:07.735Z,38.63
2019-01-21T10:03:37.454Z,36.37
2019-01-21T10:06:08.249Z,35.63
2019-01-21T10:08:52.535Z,34.47
2019-01-21T10:11:32.383Z,32.33
2019-01-21T10:14:09.577Z,36.23
2019-01-21T10:16:47.946Z,29.80
2019-01-21T10:19:23.352Z,31.23
2019-01-21T10:22:07.714Z,31.13
2019-01-21T10:24:40.483Z,29.57
2019-01-21T10:27:23.268Z,30.80
2019-01-21T10:30:07.638Z,31.63
2019-01-21T10:32:44.945Z,32.90
2019-01-21T10:35:26.871Z,26.83
2019-01-21T10:38:28.340Z,28.27
2019-01-21T10:41:07.070Z,25.80
2019-01-21T10:44:07.192Z,24.37
2019-01-21T10:46:43.874Z,26.03
2019-01-21T10:49:16.651Z,24.23
2019-01-21T10:51:59.523Z,24.30
2019-01-21T10:54:44.234Z,26.07
2019-01-21T10:57:19.672Z,26.40
2019-01-21T11:00:13.621Z,24.00
2019-01-21T11:03:02.697Z,23.00
2019-01-21T11:06:07.454Z,26.40
2019-01-21T11:08:49.493Z,25.17
2019-01-21T11:11:23.538Z,24.27
2019-01-21T11:13:59.327Z,24.60
2019-01-21T11:16:48.849Z,28.17
2019-01-21T11:19:24.263Z,30.00
2019-01-21T11:21:57.006Z,28.80
2019-01-21T11:24:49.375Z,26.73
2019-01-21T11:27:35.416Z,29.10
2019-01-21T11:30:27.778Z,22.83
2019-01-21T11:33:16.816Z,26.13
2019-01-21T11:35:52.139Z,22.00
2019-01-21T11:38:39.823Z,31.70
2019-01-21T11:41:24.561Z,24.03
2019-01-21T11:44:25.999Z,25.80
2019-01-21T11:47:15.402Z,22.80
2019-01-21T11:49:48.081Z,20.83
2019-01-21T11:52:43.125Z,20.83
2019-01-21T11:55:25.425Z,23.00
2019-01-21T11:58:07.390Z,21.00
2019-01-21T12:01:05.899Z,21.70
2019-01-21T12:03:50.960Z,23.17
2019-01-21T12:06:23.747Z,21.70
2019-01-21T12:09:14.720Z,23.10
2019-01-21T12:11:50.371Z,22.97
2019-01-21T12:14:34.910Z,26.40
2019-01-21T12:17:34.790Z,23.13
2019-01-21T12:20:19.327Z,24.87
2019-01-21T12:23:17.344Z,29.07
2019-01-21T12:26:06.602Z,22.20
2019-01-21T12:28:39.301Z,24.17
2019-01-21T12:31:32.946Z,21.30
2019-01-21T12:34:11.521Z,20.37
2019-01-21T12:36:48.606Z,22.70
2019-01-21T12:39:23.803Z,20.10
2019-01-21T12:42:03.335Z,28.67
2019-01-21T12:44:54.192Z,21.13
2019-01-21T12:47:28.202Z,22.80
2019-01-21T12:50:16.963Z,20.80
2019-01-21T12:52:53.707Z,19.37
2019-01-21T12:55:49.289Z,20.63
2019-01-21T12:58:24.930Z,19.73
2019-01-21T13:01:11.131Z,22.43
2019-01-21T13:03:52.978Z,21.53
2019-01-21T13:06:45.183Z,21.23
2019-01-21T13:09:37.450Z,20.63
2019-01-21T13:12:34.123Z,19.80
2019-01-21T13:15:18.882Z,25.97
2019-01-21T13:18:24.911Z,24.20
2019-01-21T13:21:05.835Z,19.87
2019-01-21T13:23:44.604Z,22.20
2019-01-21T13:26:47.691Z,29.37
2019-01-21T13:29:20.466Z,22.25
2019-01-21T13:32:06.596Z,25.97
2019-01-21T13:34:57.519Z,25.70
2019-01-21T13:37:36.971Z,20.30
2019-01-21T13:40:15.526Z,21.30
2019-01-21T13:42:55.575Z,21.68
2019-01-21T13:45:45.091Z,20.88
2019-01-21T13:48:20.703Z,21.27
2019-01-21T13:50:56.138Z,22.00
2019-01-21T13:53:52.484Z,21.42
2019-01-21T13:56:29.361Z,25.40
2019-01-21T13:59:18.770Z,29.25
2019-01-21T14:01:51.515Z,29.40
2019-01-21T14:04:50.522Z,23.60
2019-01-21T14:07:24.775Z,24.47
2019-01-21T14:10:06.206Z,25.27
2019-01-21T14:12:40.748Z,25.27
2019-01-21T14:15:22.218Z,25.37
2019-01-21T14:18:01.964Z,27.25
2019-01-21T14:20:46.474Z,25.15
2019-01-21T14:23:27.804Z,22.17
2019-01-21T14:26:07.690Z,23.62
2019-01-21T14:28:58.531Z,26.97
2019-01-21T14:31:49.211Z,24.65
2019-01-21T14:34:49.368Z,22.75
2019-01-21T14:37:38.431Z,23.25
2019-01-21T14:40:29.229Z,23.62
2019-01-21T14:43:19.532Z,25.50
2019-01-21T14:45:52.308Z,27.85
2019-01-21T14:48:27.900Z,23.05
2019-01-21T14:51:14.065Z,23.62
2019-01-21T14:53:49.602Z,23.05
2019-01-21T14:56:26.684Z,30.30
2019-01-21T14:59:07.912Z,23.42
2019-01-21T15:01:44.866Z,26.93
2019-01-21T15:04:41.917Z,22.80
2019-01-21T15:07:18.613Z,24.72
2019-01-21T15:09:57.524Z,25.52
2019-01-21T15:12:48.159Z,24.75
2019-01-21T15:15:40.667Z,25.23
2019-01-21T15:18:31.368Z,27.27
2019-01-21T15:21:09.803Z,28.85
2019-01-21T15:23:59.089Z,27.35
2019-01-21T15:26:39.041Z,27.37
2019-01-21T15:29:29.840Z,23.50
2019-01-21T15:32:26.260Z,25.35
2019-01-21T15:35:22.567Z,27.30
2019-01-21T15:38:09.951Z,25.48
2019-01-21T15:41:02.051Z,26.45
2019-01-21T15:43:40.791Z,29.95
2019-01-21T15:46:34.592Z,26.15
2019-01-21T15:49:07.291Z,24.95
2019-01-21T15:51:50.235Z,22.40
2019-01-21T15:54:40.732Z,25.82
2019-01-21T15:57:21.931Z,24.15
2019-01-21T15:59:57.279Z,22.15
2019-01-21T16:02:34.394Z,22.13
2019-01-21T16:05:07.221Z,22.35
2019-01-21T16:07:50.490Z,24.25
2019-01-21T16:10:31.898Z,27.32
2019-01-21T16:13:16.203Z,26.00
2019-01-21T16:15:52.943Z,25.52
2019-01-21T16:18:28.295Z,22.48
2019-01-21T16:21:35.651Z,26.77
2019-01-21T16:24:25.035Z,23.30
2019-01-21T16:27:01.926Z,25.62
2019-01-21T16:29:37.468Z,22.40
2019-01-21T16:32:08.591Z,21.87
2019-01-21T16:34:44.186Z,25.32
2019-01-21T16:37:16.934Z,23.38
2019-01-21T16:40:12.562Z,24.82
2019-01-21T16:42:43.564Z,25.00
2019-01-21T16:45:12.989Z,25.10
2019-01-21T16:47:43.845Z,25.45
2019-01-21T16:50:13.257Z,23.98
2019-01-21T16:52:44.065Z,25.95
2019-01-21T16:55:13.956Z,25.25
2019-01-21T16:57:44.918Z,25.80
2019-01-21T17:00:15.007Z,24.80
2019-01-21T17:02:46.071Z,23.32
2019-01-21T17:05:15.558Z,22.45
2019-01-21T17:07:46.574Z,29.87
2019-01-21T17:10:16.022Z,25.32
2019-01-21T17:12:46.847Z,23.65
2019-01-21T17:15:16.388Z,24.60
2019-01-21T17:17:47.284Z,24.60
2019-01-21T17:20:19.867Z,24.47
2019-01-21T17:22:50.655Z,22.32
2019-01-21T17:25:20.314Z,25.48
2019-01-21T17:27:51.245Z,25.02
2019-01-21T17:30:20.845Z,30.23
2019-01-21T17:32:51.798Z,26.60
2019-01-21T17:35:21.318Z,22.42
2019-01-21T17:37:52.330Z,27.55
2019-01-21T17:40:21.851Z,26.10
2019-01-21T17:42:52.730Z,33.23
2019-01-21T17:45:22.246Z,29.75
2019-01-21T17:47:51.662Z,25.68
2019-01-21T17:50:22.690Z,27.37
2019-01-21T17:52:52.170Z,34.33
2019-01-21T17:55:21.683Z,29.35
2019-01-21T17:57:52.760Z,29.15
2019-01-21T18:00:23.261Z,28.40
2019-01-21T18:02:52.893Z,24.25
2019-01-21T18:05:23.839Z,24.98
2019-01-21T18:07:53.261Z,30.12
2019-01-21T18:10:22.776Z,46.05
2019-01-21T18:12:52.196Z,47.33
2019-01-21T18:15:21.723Z,38.90
2019-01-21T18:17:52.706Z,35.60
2019-01-21T18:20:22.621Z,30.10
2019-01-21T18:22:53.533Z,31.85
2019-01-21T18:25:23.169Z,31.85
2019-01-21T18:27:52.650Z,35.90
2019-01-21T18:30:23.120Z,32.38
2019-01-21T18:32:54.207Z,31.60
2019-01-21T18:35:23.723Z,31.45
2019-01-21T18:37:54.378Z,31.00
2019-01-21T18:40:25.177Z,29.00
2019-01-21T18:42:54.781Z,36.60
2019-01-21T18:45:25.505Z,34.63
2019-01-21T18:47:55.012Z,30.70
2019-01-21T18:50:25.798Z,26.77
2019-01-21T18:52:55.251Z,25.95
2019-01-21T18:55:26.039Z,29.60
2019-01-21T18:57:55.975Z,30.80
2019-01-21T19:00:25.805Z,28.83
2019-01-21T19:02:55.327Z,35.40
2019-01-21T19:05:24.811Z,31.12
2019-01-21T19:07:54.262Z,31.97
2019-01-21T19:10:23.746Z,29.80
2019-01-21T19:12:53.199Z,27.40
2019-01-21T19:15:26.982Z,28.20
2019-01-21T19:17:56.562Z,25.40
2019-01-21T19:20:29.270Z,25.75
2019-01-21T19:22:58.763Z,25.35
2019-01-21T19:25:29.661Z,27.35
2019-01-21T19:27:59.102Z,30.20
2019-01-21T19:30:28.513Z,27.82
2019-01-21T19:32:58.023Z,30.80
2019-01-21T19:35:30.111Z,30.17
2019-01-21T19:37:59.610Z,25.97
2019-01-21T19:40:30.535Z,33.95
2019-01-21T19:43:00.056Z,35.78
2019-01-21T19:45:31.433Z,30.20
2019-01-21T19:48:00.929Z,26.40
2019-01-21T19:50:32.215Z,30.77
2019-01-21T19:53:01.664Z,27.55
2019-01-21T19:55:35.551Z,29.95
2019-01-21T19:58:05.930Z,27.45
2019-01-21T20:00:38.477Z,33.92
2019-01-21T20:03:07.915Z,32.85
2019-01-21T20:05:38.946Z,34.73
2019-01-21T20:08:08.433Z,32.05
2019-01-21T20:10:39.123Z,38.20
2019-01-21T20:13:08.661Z,34.67
2019-01-21T20:15:39.449Z,31.75
2019-01-21T20:18:09.131Z,30.10
2019-01-21T20:20:40.587Z,32.05
2019-01-21T20:23:10.108Z,37.88
2019-01-21T20:25:39.635Z,104.65
2019-01-21T20:28:09.125Z,119.13
2019-01-21T20:30:38.660Z,87.45
2019-01-21T20:33:08.314Z,81.63
2019-01-21T20:35:39.327Z,83.10
2019-01-21T20:38:08.906Z,66.12
2019-01-21T20:40:39.723Z,53.42
2019-01-21T20:43:09.216Z,45.12
2019-01-21T20:45:40.231Z,40.73
2019-01-21T20:48:11.474Z,44.40
2019-01-21T20:50:43.018Z,42.40
2019-01-21T20:53:12.590Z,36.48
2019-01-21T20:55:43.518Z,35.95
2019-01-21T20:58:12.931Z,31.30
2019-01-21T21:00:43.851Z,30.05
2019-01-21T21:03:13.340Z,29.77
2019-01-21T21:05:44.151Z,33.55
2019-01-21T21:08:13.641Z,33.50
2019-01-21T21:10:44.365Z,34.60
2019-01-21T21:13:13.780Z,37.25
2019-01-21T21:15:43.295Z,36.05
2019-01-21T21:18:12.783Z,39.27
2019-01-21T21:20:42.299Z,41.85
2019-01-21T21:23:11.721Z,39.35
2019-01-21T21:25:42.443Z,37.98
2019-01-21T21:28:11.857Z,38.88
2019-01-21T21:30:41.378Z,35.68
2019-01-21T21:33:10.791Z,36.85
2019-01-21T21:35:40.322Z,35.10
2019-01-21T21:38:09.810Z,39.63
2019-01-21T21:40:39.338Z,33.00
2019-01-21T21:43:08.820Z,39.42
2019-01-21T21:45:38.640Z,36.83
2019-01-21T21:48:08.122Z,34.90
2019-01-21T21:50:39.047Z,30.75
2019-01-21T21:53:08.504Z,31.65
2019-01-21T21:55:38.058Z,38.33
2019-01-21T21:58:07.982Z,31.23
2019-01-21T22:00:38.911Z,34.08
2019-01-21T22:03:08.395Z,37.83
2019-01-21T22:05:37.906Z,37.93
2019-01-21T22:08:07.326Z,47.60
2019-01-21T22:10:36.999Z,44.50
2019-01-21T22:13:06.594Z,44.48
2019-01-21T22:15:37.416Z,46.00
2019-01-21T22:18:06.839Z,34.67
2019-01-21T22:20:37.888Z,39.60
2019-01-21T22:23:07.373Z,38.13
2019-01-21T22:25:38.196Z,37.17
2019-01-21T22:28:07.647Z,36.10
2019-01-21T22:30:38.562Z,34.13
2019-01-21T22:33:08.043Z,48.58
2019-01-21T22:35:37.527Z,48.92
2019-01-21T22:38:07.043Z,41.55
2019-01-21T22:40:38.262Z,48.95
2019-01-21T22:43:07.714Z,89.07
2019-01-21T22:45:37.211Z,40.60
2019-01-21T22:48:06.681Z,42.33
2019-01-21T22:50:36.094Z,40.28
2019-01-21T22:53:05.546Z,38.38
2019-01-21T22:55:36.331Z,39.95
2019-01-21T22:58:05.852Z,39.20
2019-01-21T23:00:44.330Z,41.90
2019-01-21T23:03:14.346Z,42.75
2019-01-21T23:05:43.866Z,41.50
2019-01-21T23:08:13.378Z,43.25
2019-01-21T23:10:42.870Z,45.88
2019-01-21T23:13:12.386Z,44.38
2019-01-21T23:15:43.275Z,41.28
2019-01-21T23:18:12.903Z,44.45
2019-01-21T23:20:42.298Z,44.85
2019-01-21T23:23:11.819Z,36.63
2019-01-21T23:25:42.699Z,44.13
2019-01-21T23:28:12.193Z,45.92
2019-01-21T23:30:41.631Z,43.83
2019-01-21T23:33:11.160Z,52.15
2019-01-21T23:35:40.656Z,74.95
2019-01-21T23:38:10.063Z,42.90
2019-01-21T23:40:40.893Z,49.45
2019-01-21T23:43:11.913Z,50.58
2019-01-21T23:45:41.447Z,62.93
2019-01-21T23:48:11.126Z,53.65
2019-01-21T23:50:42.038Z,37.93
2019-01-21T23:53:11.528Z,44.60
2019-01-21T23:55:41.047Z,43.30
2019-01-21T23:58:10.476Z,54.15
